createdAt,value
2018-02-07T00:03:37.909Z,21
2018-02-07T00:13:38.087Z,23
2018-02-07T00:23:37.900Z,24
2018-02-07T00:33:37.928Z,23
2018-02-07T00:43:37.945Z,23
2018-02-07T00:53:38.304Z,23
2018-02-07T01:03:38.054Z,23
2018-02-07T01:13:38.073Z,23
2018-02-07T01:23:38.020Z,22
2018-02-07T01:33:38.041Z,23
2018-02-07T01:43:38.063Z,23
2018-02-07T01:53:38.109Z,22
2018-02-07T02:03:38.033Z,23
2018-02-07T02:13:38.071Z,23
2018-02-07T02:23:38.054Z,25
2018-02-07T02:33:38.000Z,26
2018-02-07T02:43:38.136Z,24
2018-02-07T02:53:38.054Z,23
2018-02-07T03:03:38.094Z,24
2018-02-07T03:13:38.096Z,23
2018-02-07T03:23:38.046Z,24
2018-02-07T03:33:38.083Z,22
2018-02-07T03:43:38.050Z,24
2018-02-07T03:53:38.158Z,23
2018-02-07T04:03:37.997Z,23
2018-02-07T04:13:38.143Z,22
2018-02-07T04:23:38.128Z,21
2018-02-07T04:33:38.172Z,23
2018-02-07T04:43:38.121Z,22
2018-02-07T04:53:38.063Z,21
2018-02-07T05:03:38.166Z,20
2018-02-07T05:13:38.056Z,23
2018-02-07T05:23:38.173Z,21
2018-02-07T05:33:38.238Z,22
2018-02-07T05:43:38.165Z,21
2018-02-07T05:53:38.163Z,22
2018-02-07T06:03:38.142Z,20
2018-02-07T06:13:38.225Z,23
2018-02-07T06:23:38.260Z,23
2018-02-07T06:33:38.422Z,20
2018-02-07T06:43:38.222Z,21
2018-02-07T06:53:38.429Z,21
2018-02-07T07:03:38.369Z,22
2018-02-07T07:13:38.361Z,23
2018-02-07T07:23:38.340Z,20
2018-02-07T07:33:38.261Z,20
2018-02-07T07:43:38.291Z,18
2018-02-07T07:53:38.265Z,23
2018-02-07T08:03:38.281Z,19
2018-02-07T08:13:38.211Z,20
2018-02-07T08:23:38.626Z,21
2018-02-07T08:33:38.288Z,20
2018-02-07T08:43:38.377Z,19
2018-02-07T08:53:38.284Z,20
2018-02-07T09:03:38.371Z,20
2018-02-07T09:13:38.264Z,22
2018-02-07T09:23:38.327Z,20
2018-02-07T09:33:38.332Z,20
2018-02-07T09:43:38.323Z,24
2018-02-07T09:53:38.364Z,24
2018-02-07T10:03:38.297Z,25
2018-02-07T10:13:38.459Z,24
2018-02-07T10:23:38.352Z,20
2018-02-07T10:33:38.381Z,21
2018-02-07T10:43:39.503Z,20
2018-02-07T10:53:38.354Z,18
2018-02-07T11:03:38.598Z,19
2018-02-07T11:13:38.339Z,19
2018-02-07T11:23:38.393Z,15
2018-02-07T11:33:38.407Z,17
2018-02-07T11:43:38.410Z,17
2018-02-07T11:53:38.384Z,17
2018-02-07T12:03:38.462Z,17
2018-02-07T12:13:38.387Z,17
2018-02-07T12:23:38.486Z,16
2018-02-07T12:33:38.507Z,17
2018-02-07T12:43:38.426Z,19
2018-02-07T12:53:38.720Z,19
2018-02-07T13:03:38.454Z,19
2018-02-07T13:13:38.444Z,18
2018-02-07T13:23:38.508Z,19
2018-02-07T13:33:38.504Z,16
2018-02-07T13:43:38.773Z,18
2018-02-07T13:53:38.531Z,18
2018-02-07T14:03:38.569Z,17
2018-02-07T14:13:38.501Z,15
2018-02-07T14:23:38.505Z,15
2018-02-07T14:33:38.580Z,16
2018-02-07T14:43:38.650Z,16
2018-02-07T14:53:38.523Z,15
2018-02-07T15:03:38.541Z,15
2018-02-07T15:13:38.656Z,16
2018-02-07T15:23:38.656Z,15
2018-02-07T15:33:38.493Z,15
2018-02-07T15:43:39.056Z,15
2018-02-07T15:53:38.698Z,16
2018-02-07T16:03:38.710Z,16
2018-02-07T16:13:38.631Z,13
2018-02-07T16:23:38.576Z,14
2018-02-07T16:33:38.562Z,14
2018-02-07T16:43:38.634Z,17
2018-02-07T16:53:38.661Z,14
2018-02-07T17:03:38.653Z,15
2018-02-07T17:13:38.696Z,16
2018-02-07T17:23:38.671Z,15
2018-02-07T17:33:38.861Z,17
2018-02-07T17:43:38.738Z,16
2018-02-07T17:53:39.033Z,16
2018-02-07T18:03:38.839Z,15
2018-02-07T18:13:38.708Z,15
2018-02-07T18:23:38.807Z,16
2018-02-07T18:33:38.682Z,17
2018-02-07T18:43:38.724Z,16
2018-02-07T18:53:38.740Z,20
2018-02-07T19:03:38.873Z,16
2018-02-07T19:13:38.694Z,18
2018-02-07T19:23:38.877Z,17
2018-02-07T19:33:38.755Z,19
2018-02-07T19:43:38.735Z,19
2018-02-07T19:53:38.810Z,19
2018-02-07T20:03:38.745Z,17
2018-02-07T20:13:38.819Z,20
2018-02-07T20:23:38.789Z,19
2018-02-07T20:33:38.818Z,20
2018-02-07T20:43:38.821Z,20
2018-02-07T20:53:38.858Z,20
2018-02-07T21:03:38.831Z,21
2018-02-07T21:13:38.902Z,20
2018-02-07T21:23:38.926Z,20
2018-02-07T21:33:38.987Z,18
2018-02-07T21:43:38.979Z,21
2018-02-07T21:53:38.909Z,21
2018-02-07T22:03:38.882Z,20
2018-02-07T22:13:39.464Z,22
2018-02-07T22:23:39.091Z,20
2018-02-07T22:33:39.044Z,21
2018-02-07T22:43:39.191Z,20
2018-02-07T22:53:38.952Z,20
2018-02-07T23:03:38.778Z,21
2018-02-07T23:13:39.241Z,22
2018-02-07T23:23:39.156Z,20
2018-02-07T23:33:39.161Z,21
2018-02-07T23:43:39.176Z,19
2018-02-07T23:53:39.202Z,22
